Startpagina
METAR-TAF:

METAR-TAF

Vliegvelden :

Internationale luchthaven Changi

Singapore, Singapore

breedte: 01-22N, lengte: 103-59E, hoogte: 5 m

Actueel weer

Dit bericht is 21 minuten geleden gemaakt, om 19:30 UTC
Wind 2 kt uit variabele richting
Temperatuur 25°C
Vochtigheid 94%
Druk 1010 hPa
Zicht 10 km of meer
Weinig wolken op 1600 ft
Gebroken wolken op 30000 ft

METAR: WSSS 231930Z VRB02KT 9999 FEW016 BKN300 25/24 Q1010 NOSIG

Tijdstip: 03:51 (19:51 UTC)

Verwachting

Dit bericht is 2 uur en het 51 minuten geleden gemaakt, om 17:00 UTC
Verwachting geldig van 23 om 18 UTC tot 25 om 00 UTC
Wind 8 kt uit het zuiden
Zicht 10 km of meer
Weinig wolken op 1800 ft, Cumulonimbus.
Verspreide wolken op 2000 ft
Tijdelijke
van 23 om 22 UTC tot 24 om 02 UTC
Zicht: 3000 m
Weinig wolken op 1200 ft, Cumulonimbus.
Gebroken wolken op 1500 ft
onweer, regen

TAF: WSSS 231700Z 2318/2500 18008KT 9999 FEW018CB SCT020 TEMPO 2322/2402 3000 TSRA FEW012CB BKN015

Waarnemingen en weersverwachtingen van meer dan 4000 vliegvelden (METAR en TAF).

De beschikbare stations zijn de gele en rode punten op de kaart.

Ga met uw muis naar het station om de naam te zien.

Klik dan om waarnemingen en weersverwachtingen te zien.

kaart wijzigen: klik op de groene knoppen met een zwart kruis om in te zoomen, op de groene knop met een streepje om uit te zoomen of op de groene pijlen voor aangrenzende kaarten.


METAR-TAF: